Time;durP1;ratioP1;P1;durP2;ratioP2;P2;SDS_P1;SDS_P2;PMS_P1;PMS_P2;Temp;Humidity;BMP_temperature;BMP_pressure;BME280_temperature;BME280_humidity;BME280_pressure;Samples;Min_cycle;Max_cycle;Signal;HPM_P1;HPM_P2
2021/12/20 00:01:00;;;;;;;;;28.00;23.75;;;;;9.65;67.74;102451.19;4989319;28;45551;-78
2021/12/20 00:03:26;;;;;;;;;27.50;24.50;;;;;9.67;67.53;102457.41;4970946;28;45484;-80
2021/12/20 00:05:51;;;;;;;;;23.25;21.75;;;;;9.66;67.45;102450.34;4995013;28;45770;-79
2021/12/20 00:08:17;;;;;;;;;27.00;24.00;;;;;9.59;67.15;102433.38;4976187;28;47258;-79
2021/12/20 00:10:42;;;;;;;;;27.50;22.50;;;;;9.69;67.82;102461.91;4999947;28;45521;-80
2021/12/20 00:13:07;;;;;;;;;34.00;23.75;;;;;9.66;67.59;102437.16;4965119;28;61377;-79
2021/12/20 00:15:33;;;;;;;;;27.50;17.25;;;;;9.61;67.68;102434.31;4999819;28;45315;-80
2021/12/20 00:17:58;;;;;;;;;29.00;23.50;;;;;9.72;67.54;102447.94;4983012;28;61568;-79
2021/12/20 00:20:24;;;;;;;;;27.75;25.00;;;;;9.73;67.38;102444.47;4983557;28;45341;-79
2021/12/20 00:22:49;;;;;;;;;29.25;23.50;;;;;9.73;67.63;102436.53;4987420;28;45916;-79
2021/12/20 00:25:15;;;;;;;;;25.00;19.50;;;;;9.73;67.14;102438.28;4980190;28;45492;-79
2021/12/20 00:27:40;;;;;;;;;27.00;22.75;;;;;9.75;67.49;102441.88;4981295;28;46745;-80
2021/12/20 00:30:07;;;;;;;;;30.25;24.75;;;;;9.70;67.16;102441.72;4980559;28;45460;-78
2021/12/20 00:32:32;;;;;;;;;32.25;25.25;;;;;9.71;67.27;102431.22;4997845;28;45531;-80
2021/12/20 00:34:58;;;;;;;;;31.50;27.00;;;;;9.73;67.08;102436.53;4992627;28;45429;-79
2021/12/20 00:40:21;;;;;;;;;23.50;23.50;;;;;9.76;67.10;102444.59;5017038;28;45398;-78
2021/12/20 00:42:47;;;;;;;;;25.50;21.00;;;;;9.76;67.33;102431.41;4977318;28;45532;-79
2021/12/20 00:45:16;;;;;;;;;29.75;27.75;;;;;9.75;67.00;102429.63;4974493;28;45535;-78
2021/12/20 00:47:41;;;;;;;;;29.25;24.75;;;;;9.77;67.17;102433.19;5019692;28;45785;-79
2021/12/20 00:50:08;;;;;;;;;35.75;29.50;;;;;9.69;67.45;102406.53;4994713;28;45180;-79
2021/12/20 00:52:33;;;;;;;;;27.25;23.00;;;;;9.76;67.40;102422.59;4992439;28;45444;-79
2021/12/20 00:54:58;;;;;;;;;27.50;26.00;;;;;9.79;67.12;102425.34;4999893;28;57033;-79
2021/12/20 00:57:24;;;;;;;;;34.00;24.75;;;;;9.77;67.32;102424.38;5000911;28;61322;-79
2021/12/20 00:59:52;;;;;;;;;27.50;22.25;;;;;9.77;67.24;102427.03;4994783;28;45504;-79
2021/12/20 01:02:17;;;;;;;;;26.25;22.25;;;;;9.71;67.09;102412.75;4995078;28;45337;-79
2021/12/20 01:04:43;;;;;;;;;28.25;19.75;;;;;9.77;66.92;102417.38;5000286;28;52144;-79
2021/12/20 01:07:08;;;;;;;;;20.00;20.00;;;;;9.71;67.19;102407.47;5015821;28;48270;-79
2021/12/20 01:09:34;;;;;;;;;23.50;19.00;;;;;9.77;67.32;102413.84;5009520;28;45431;-79
2021/12/20 01:12:04;;;;;;;;;30.50;22.25;;;;;9.76;66.93;102412.94;5017908;28;45538;-79
2021/12/20 01:14:32;;;;;;;;;28.50;24.00;;;;;9.80;67.04;102416.56;4996284;28;45873;-80
2021/12/20 01:17:03;;;;;;;;;27.75;24.75;;;;;9.79;66.77;102405.13;5002306;28;47914;-79
2021/12/20 01:19:28;;;;;;;;;25.25;21.50;;;;;9.70;66.86;102389.88;4999473;28;45252;-79
2021/12/20 01:21:54;;;;;;;;;25.25;23.00;;;;;9.77;67.05;102391.00;4984620;28;59457;-79
2021/12/20 01:24:19;;;;;;;;;28.75;23.50;;;;;9.80;67.13;102406.94;5008869;28;50283;-80
2021/12/20 01:26:45;;;;;;;;;29.00;26.75;;;;;9.74;67.18;102396.13;5005364;28;48518;-79
2021/12/20 01:29:10;;;;;;;;;35.50;24.00;;;;;9.79;66.81;102404.22;5011017;28;45342;-80
2021/12/20 01:31:36;;;;;;;;;23.25;20.25;;;;;9.76;66.64;102399.75;5027939;28;57477;-79
2021/12/20 01:34:01;;;;;;;;;25.50;20.25;;;;;9.77;66.74;102396.28;5016698;28;53518;-78
2021/12/20 01:36:26;;;;;;;;;27.50;23.75;;;;;9.78;66.94;102400.69;4983378;28;48719;-79
2021/12/20 01:38:52;;;;;;;;;23.00;21.50;;;;;9.79;66.82;102401.59;5003685;28;58926;-80
2021/12/20 01:41:17;;;;;;;;;29.25;22.75;;;;;9.74;66.89;102395.25;5017457;28;51302;-79
2021/12/20 01:43:44;;;;;;;;;24.75;21.25;;;;;9.77;66.82;102396.28;4992122;28;45317;-79
2021/12/20 01:46:09;;;;;;;;;26.75;21.25;;;;;9.80;67.00;102392.84;5013085;28;47498;-78
2021/12/20 01:48:36;;;;;;;;;27.00;22.75;;;;;9.80;66.56;102391.13;5018263;28;46046;-80
2021/12/20 01:53:34;;;;;;;;;26.50;23.00;;;;;9.71;66.99;102375.81;5019041;28;45366;-78
2021/12/20 01:55:59;;;;;;;;;27.00;24.00;;;;;9.80;66.98;102388.50;4991549;28;45964;-79
2021/12/20 01:58:25;;;;;;;;;27.50;22.50;;;;;9.66;66.84;102371.22;4992411;28;45680;-79
2021/12/20 02:03:38;;;;;;;;;32.00;26.00;;;;;9.77;66.79;102396.28;5009354;28;45367;-79
2021/12/20 02:06:07;;;;;;;;;25.00;22.75;;;;;9.76;66.97;102383.94;4986854;28;46176;-80
2021/12/20 02:08:33;;;;;;;;;22.50;20.50;;;;;9.83;66.83;102383.31;5026535;28;45361;-80
2021/12/20 02:11:00;;;;;;;;;33.50;21.50;;;;;9.81;66.87;102382.38;5028135;28;45621;-79
2021/12/20 02:13:29;;;;;;;;;29.25;23.25;;;;;9.81;66.74;102390.28;5024252;28;45486;-79
2021/12/20 02:15:56;;;;;;;;;29.75;24.25;;;;;9.71;66.87;102375.81;4997762;28;46287;-79
2021/12/20 02:18:21;;;;;;;;;29.25;23.50;;;;;9.75;66.43;102370.66;5016124;28;46247;-81
2021/12/20 02:20:46;;;;;;;;;33.25;23.75;;;;;9.80;66.59;102372.66;5017956;28;45819;-81
2021/12/20 02:23:12;;;;;;;;;29.50;21.00;;;;;9.81;66.61;102384.09;5016747;28;62466;-79
2021/12/20 02:25:37;;;;;;;;;28.25;22.00;;;;;9.81;66.83;102394.66;5003301;28;46266;-79
2021/12/20 02:28:07;;;;;;;;;26.75;22.25;;;;;9.79;66.47;102375.22;5003258;28;62215;-79
2021/12/20 02:38:31;;;;;;;;;30.00;26.25;;;;;9.84;66.48;102381.56;5021985;28;45567;-79
2021/12/20 02:40:58;;;;;;;;;27.25;23.50;;;;;9.83;66.31;102377.13;5006691;28;45634;-80
2021/12/20 02:43:23;;;;;;;;;29.75;28.50;;;;;9.74;66.44;102363.59;4988389;28;46718;-80
2021/12/20 02:45:49;;;;;;;;;35.50;29.50;;;;;9.82;66.32;102375.34;5010735;28;45700;-80
2021/12/20 02:48:14;;;;;;;;;34.75;29.00;;;;;9.74;66.11;102364.47;5016805;28;50304;-79
2021/12/20 02:50:39;;;;;;;;;36.00;29.50;;;;;9.82;66.50;102372.72;5021993;28;47279;-80
2021/12/20 02:53:05;;;;;;;;;47.25;35.00;;;;;9.83;66.16;102372.75;4990770;28;46571;-80
2021/12/20 02:55:30;;;;;;;;;31.75;28.25;;;;;9.82;66.02;102375.34;4987710;28;64728;-80
2021/12/20 02:57:55;;;;;;;;;31.50;26.00;;;;;9.76;66.42;102364.56;5031357;28;56003;-80
2021/12/20 03:00:21;;;;;;;;;34.50;31.25;;;;;9.83;66.32;102371.88;5036152;28;58652;-79
2021/12/20 03:02:46;;;;;;;;;41.75;34.25;;;;;9.81;66.14;102381.47;5003926;28;53103;-79
2021/12/20 03:05:12;;;;;;;;;44.25;36.25;;;;;9.80;66.33;102370.03;5012375;28;50519;-79
2021/12/20 03:07:50;;;;;;;;;39.00;33.75;;;;;9.74;66.16;102348.66;4997037;28;45370;-79
2021/12/20 03:10:15;;;;;;;;;39.50;34.25;;;;;9.80;65.92;102369.09;5009252;28;45422;-80
2021/12/20 03:12:40;;;;;;;;;43.25;37.00;;;;;9.78;66.23;102357.59;5003840;28;45191;-79
2021/12/20 03:15:18;;;;;;;;;48.75;36.75;;;;;9.81;66.10;102355.09;5029495;28;46715;-80
2021/12/20 03:17:43;;;;;;;;;48.50;40.00;;;;;9.73;65.99;102344.22;4991902;28;45499;-80
2021/12/20 03:20:09;;;;;;;;;48.25;37.25;;;;;9.80;66.09;102348.00;4992175;28;47827;-80
2021/12/20 03:22:34;;;;;;;;;39.75;36.00;;;;;9.74;66.23;102329.28;5000982;28;45671;-80
2021/12/20 03:25:00;;;;;;;;;45.00;35.50;;;;;9.83;66.23;102342.84;5013465;28;63404;-78
2021/12/20 03:27:25;;;;;;;;;49.00;38.75;;;;;9.81;66.03;102341.91;5026325;28;59554;-80
2021/12/20 03:29:50;;;;;;;;;38.50;35.00;;;;;9.85;65.68;102354.34;5034688;28;57158;-79
2021/12/20 03:32:19;;;;;;;;;38.00;33.25;;;;;9.81;66.03;102341.91;5015768;28;45551;-80
2021/12/20 03:34:46;;;;;;;;;38.75;35.50;;;;;9.82;66.00;102343.69;5010657;28;46710;-81
2021/12/20 03:37:12;;;;;;;;;43.50;33.00;;;;;9.76;65.42;102335.56;5024146;28;65041;-79
2021/12/20 03:39:37;;;;;;;;;38.50;32.75;;;;;9.81;65.81;102348.06;5002645;28;53560;-79
2021/12/20 03:42:03;;;;;;;;;39.25;32.50;;;;;9.81;65.87;102342.78;4981286;28;59381;-80
2021/12/20 03:44:32;;;;;;;;;39.50;33.75;;;;;9.79;65.69;102336.53;5009873;28;46770;-80
2021/12/20 03:47:01;;;;;;;;;43.50;36.00;;;;;9.80;65.72;102337.44;4998756;28;45524;-78
2021/12/20 03:49:26;;;;;;;;;49.75;37.50;;;;;9.79;65.73;102333.91;5008543;28;46100;-79
2021/12/20 03:51:51;;;;;;;;;45.50;34.25;;;;;9.74;65.57;102324.91;5003532;28;56558;-79
2021/12/20 03:54:17;;;;;;;;;42.00;35.50;;;;;9.84;65.78;102337.63;5033375;28;66308;-79
2021/12/20 03:56:42;;;;;;;;;40.00;32.50;;;;;9.76;65.74;102319.72;4996313;28;50026;-80
2021/12/20 03:59:08;;;;;;;;;34.25;29.25;;;;;9.81;65.55;102329.59;5006937;28;45447;-79
2021/12/20 04:01:33;;;;;;;;;32.50;30.25;;;;;9.79;65.59;102336.53;5010201;28;45409;-80
2021/12/20 04:04:00;;;;;;;;;41.25;29.25;;;;;9.68;65.46;102312.41;5006089;28;46606;-80
2021/12/20 04:06:26;;;;;;;;;41.25;37.25;;;;;9.69;65.43;102319.50;5005681;28;45531;-80
2021/12/20 04:08:51;;;;;;;;;41.00;36.25;;;;;9.68;65.61;102319.41;4990812;28;45259;-80
2021/12/20 04:11:17;;;;;;;;;44.00;35.50;;;;;9.78;65.54;102326.84;4989617;28;58472;-79
2021/12/20 04:13:42;;;;;;;;;43.75;35.00;;;;;9.77;65.59;102332.97;4991113;28;46648;-79
2021/12/20 04:16:08;;;;;;;;;39.50;35.75;;;;;9.82;65.61;102341.06;4998699;28;45910;-79
2021/12/20 04:18:33;;;;;;;;;40.25;35.50;;;;;9.76;65.47;102336.44;4998679;28;47491;-81
2021/12/20 04:20:59;;;;;;;;;45.75;36.00;;;;;9.78;65.70;102332.13;4985451;28;45557;-80
2021/12/20 04:23:24;;;;;;;;;35.75;31.25;;;;;9.77;65.75;102337.34;4983491;28;61197;-79
2021/12/20 04:25:50;;;;;;;;;37.25;31.50;;;;;9.82;65.27;102343.69;4993706;28;45456;-79
2021/12/20 04:28:15;;;;;;;;;39.50;32.75;;;;;9.81;65.58;102339.25;4994154;28;45289;-80
2021/12/20 04:30:41;;;;;;;;;35.50;34.25;;;;;9.73;65.39;102331.03;5016408;28;45609;-80
2021/12/20 04:33:06;;;;;;;;;39.00;29.25;;;;;9.82;65.71;102339.31;4990234;28;48237;-79
2021/12/20 04:35:32;;;;;;;;;33.25;29.50;;;;;9.81;65.50;102334.88;4978913;28;47415;-79
2021/12/20 04:37:59;;;;;;;;;42.00;30.00;;;;;9.81;65.61;102341.91;5011309;28;45340;-81
2021/12/20 04:40:24;;;;;;;;;41.50;30.25;;;;;9.80;65.54;102333.09;5036510;28;45443;-80
2021/12/20 04:42:54;;;;;;;;;32.00;28.25;;;;;9.77;65.45;102330.31;4995878;28;46375;-79
2021/12/20 04:45:20;;;;;;;;;37.75;29.00;;;;;9.82;65.35;102341.94;5007400;28;45483;-79
2021/12/20 04:47:46;;;;;;;;;35.25;32.50;;;;;9.78;65.06;102350.56;5000334;28;45534;-79
2021/12/20 04:50:11;;;;;;;;;29.75;28.50;;;;;9.76;64.86;102341.72;4981106;28;54283;-81
2021/12/20 04:52:37;;;;;;;;;30.50;30.50;;;;;9.75;65.38;102341.63;4977347;28;47501;-80
2021/12/20 04:55:06;;;;;;;;;34.75;28.75;;;;;9.74;65.42;102324.91;4998261;28;45316;-79
2021/12/20 04:57:32;;;;;;;;;34.75;29.50;;;;;9.73;65.29;102330.16;5019556;28;45515;-82
2021/12/20 04:59:57;;;;;;;;;39.75;28.75;;;;;9.71;65.19;102338.91;4983656;28;45369;-79
2021/12/20 05:02:22;;;;;;;;;33.00;28.50;;;;;9.64;65.30;102328.97;4991802;28;47726;-79
2021/12/20 05:04:48;;;;;;;;;32.75;24.75;;;;;9.69;65.48;102329.13;4976952;28;57759;-80
2021/12/20 05:07:13;;;;;;;;;38.50;25.75;;;;;9.74;65.32;102334.56;5035127;28;51006;-77
2021/12/20 05:09:39;;;;;;;;;28.75;26.00;;;;;9.76;65.64;102341.72;5002814;28;45504;-80
2021/12/20 05:12:13;;;;;;;;;33.00;27.75;;;;;9.76;65.33;102348.75;5026128;28;46302;-80
2021/12/20 05:14:40;;;;;;;;;31.50;21.75;;;;;9.69;64.96;102334.38;5010237;28;45299;-81
2021/12/20 05:17:05;;;;;;;;;32.00;21.75;;;;;9.73;64.82;102341.59;4983375;28;45265;-79
2021/12/20 05:19:31;;;;;;;;;32.25;19.75;;;;;9.69;65.25;102337.97;5014692;28;45422;-79
2021/12/20 05:21:56;;;;;;;;;25.50;21.25;;;;;9.66;65.03;102351.00;5010503;28;68348;-79
2021/12/20 05:24:22;;;;;;;;;25.00;20.00;;;;;9.67;64.84;102355.44;5031686;28;50888;-79
2021/12/20 05:26:47;;;;;;;;;24.25;22.75;;;;;9.64;64.73;102338.59;4995447;28;49187;-79
2021/12/20 05:29:12;;;;;;;;;24.75;22.25;;;;;9.64;64.96;102349.13;4990086;28;45507;-81
2021/12/20 05:31:38;;;;;;;;;37.25;24.50;;;;;9.64;64.89;102347.44;5011305;28;57022;-80
2021/12/20 05:34:04;;;;;;;;;31.50;24.25;;;;;9.63;64.91;102339.44;5028384;28;45384;-79
2021/12/20 05:36:29;;;;;;;;;24.25;20.50;;;;;9.66;64.99;102342.19;4996201;28;45491;-79
2021/12/20 05:38:54;;;;;;;;;32.00;26.50;;;;;9.62;64.97;102340.28;5031498;28;59384;-80
2021/12/20 05:41:20;;;;;;;;;28.25;22.50;;;;;9.63;64.62;102350.88;5014820;28;60493;-79
2021/12/20 05:43:45;;;;;;;;;33.75;19.75;;;;;9.61;65.06;102342.03;4988241;28;64110;-80
2021/12/20 05:46:11;;;;;;;;;40.75;25.25;;;;;9.61;65.00;102335.84;5003162;28;45424;-79
2021/12/20 05:48:36;;;;;;;;;26.00;20.75;;;;;9.51;64.56;102331.94;5030914;28;45607;-81
2021/12/20 05:51:02;;;;;;;;;31.00;22.50;;;;;9.56;65.16;102333.03;4987028;28;58801;-79
2021/12/20 05:53:27;;;;;;;;;25.50;23.25;;;;;9.55;65.15;102331.22;4982461;28;56204;-79
2021/12/20 05:55:53;;;;;;;;;29.75;27.00;;;;;9.58;65.13;102343.63;5025881;28;45579;-81
2021/12/20 05:58:18;;;;;;;;;33.25;24.00;;;;;9.49;64.87;102332.75;5017282;28;46094;-79
2021/12/20 06:00:43;;;;;;;;;29.00;26.75;;;;;9.53;64.90;102343.44;5018097;28;48745;-79
2021/12/20 06:03:10;;;;;;;;;22.75;21.00;;;;;9.51;65.29;102331.94;5011176;28;45626;-79
2021/12/20 06:05:35;;;;;;;;;27.25;22.00;;;;;9.34;64.96;102304.91;5000910;28;45254;-80
2021/12/20 06:08:01;;;;;;;;;24.75;23.25;;;;;9.49;65.05;102331.00;5016968;28;45266;-79
2021/12/20 06:10:27;;;;;;;;;28.00;23.75;;;;;9.58;64.97;102335.72;4979831;28;47600;-80
2021/12/20 06:12:52;;;;;;;;;30.50;25.25;;;;;9.55;64.85;102325.97;4986215;28;54689;-79
2021/12/20 06:15:18;;;;;;;;;24.75;22.50;;;;;9.57;64.79;102341.84;5022528;28;45456;-78
2021/12/20 06:17:43;;;;;;;;;23.75;21.75;;;;;9.59;64.91;102340.19;5022309;28;45400;-78
2021/12/20 06:20:10;;;;;;;;;34.50;23.75;;;;;9.55;64.79;102339.16;5010111;28;45996;-80
2021/12/20 06:22:36;;;;;;;;;27.25;25.25;;;;;9.55;64.71;102340.88;5000967;28;45447;-78
2021/12/20 06:25:01;;;;;;;;;35.25;27.00;;;;;9.53;64.79;102329.34;5017839;28;45503;-78
2021/12/20 06:27:26;;;;;;;;;34.50;27.00;;;;;9.56;65.05;102338.31;5000516;28;53554;-79
2021/12/20 06:29:52;;;;;;;;;33.25;28.25;;;;;9.56;64.75;102335.66;5013763;28;65650;-79
2021/12/20 06:32:17;;;;;;;;;36.75;26.00;;;;;9.55;64.87;102343.53;5033008;28;55472;-80
2021/12/20 06:34:42;;;;;;;;;25.00;19.00;;;;;9.53;64.90;102347.81;5020704;28;59319;-81
2021/12/20 06:37:08;;;;;;;;;28.25;26.25;;;;;9.54;65.04;102350.53;5008587;28;45274;-78
2021/12/20 06:39:33;;;;;;;;;27.00;22.50;;;;;9.41;64.85;102328.03;4989795;28;48366;-79
2021/12/20 06:41:59;;;;;;;;;36.50;27.00;;;;;9.52;64.94;102354.84;5092954;23;46221;-79
2021/12/20 06:44:24;;;;;;;;;38.75;30.25;;;;;9.54;64.80;102360.19;4993203;28;56769;-78
2021/12/20 06:46:51;;;;;;;;;36.50;27.00;;;;;9.50;64.91;102351.25;4971403;28;45572;-79
2021/12/20 06:49:16;;;;;;;;;30.25;25.25;;;;;9.52;65.20;102353.94;4994754;28;47359;-79
2021/12/20 06:51:43;;;;;;;;;44.25;30.50;;;;;9.42;64.62;102345.66;4993489;28;45473;-79
2021/12/20 06:54:12;;;;;;;;;40.00;29.00;;;;;9.44;65.14;102349.28;5004625;28;45460;-78
2021/12/20 06:56:38;;;;;;;;;32.75;27.00;;;;;9.55;65.13;102359.34;4998073;28;45419;-81
2021/12/20 06:59:03;;;;;;;;;32.75;26.50;;;;;9.41;65.19;102340.31;4998991;28;46341;-78
2021/12/20 07:01:29;;;;;;;;;29.50;25.00;;;;;9.56;65.19;102369.94;4998695;28;57381;-79
2021/12/20 07:03:54;;;;;;;;;35.50;30.50;;;;;9.50;65.35;102351.25;5012786;28;45381;-79
2021/12/20 07:06:20;;;;;;;;;35.25;24.50;;;;;9.49;64.92;102345.94;4987799;28;45417;-77
2021/12/20 07:08:45;;;;;;;;;34.25;28.00;;;;;9.56;65.04;102356.75;4991311;28;48666;-79
2021/12/20 07:11:11;;;;;;;;;32.75;27.75;;;;;9.59;65.10;102356.91;4998584;28;55553;-79
2021/12/20 07:13:36;;;;;;;;;30.25;24.50;;;;;9.57;65.00;102366.47;4988579;28;46882;-78
2021/12/20 07:16:02;;;;;;;;;35.75;25.00;;;;;9.61;64.81;102372.78;5009110;28;45671;-78
2021/12/20 07:18:27;;;;;;;;;28.75;28.00;;;;;9.52;64.86;102354.84;4991904;28;46738;-77
2021/12/20 07:20:52;;;;;;;;;26.25;23.25;;;;;9.57;65.40;102363.81;5006199;28;54531;-77
2021/12/20 07:23:18;;;;;;;;;29.00;25.50;;;;;9.52;64.91;102357.47;4996378;28;46017;-76
2021/12/20 07:25:43;;;;;;;;;24.25;21.25;;;;;9.59;64.85;102369.19;5006768;28;58701;-82
2021/12/20 07:28:08;;;;;;;;;26.00;20.25;;;;;9.45;64.03;102364.25;4990156;28;45941;-73
2021/12/20 07:30:34;;;;;;;;;25.50;18.75;;;;;9.27;64.04;102375.75;5004264;28;45609;-73
2021/12/20 07:33:00;;;;;;;;;17.75;13.25;;;;;9.08;64.35;102375.00;5005050;28;45640;-74
2021/12/20 07:35:27;;;;;;;;;16.50;13.25;;;;;8.92;64.67;102377.84;5006254;28;46677;-73
2021/12/20 07:37:54;;;;;;;;;24.75;17.00;;;;;8.83;64.48;102390.59;5008332;28;45928;-73
2021/12/20 07:40:20;;;;;;;;;13.50;11.75;;;;;8.74;64.79;102391.13;4997980;28;45671;-74
2021/12/20 07:48:17;;;;;;;;;13.50;8.00;;;;;8.80;65.13;102378.22;4287723;22;46892;-74
2021/12/20 07:50:43;;;;;;;;;10.50;7.50;;;;;8.86;65.14;102381.13;5028065;28;45597;-74
2021/12/20 07:53:08;;;;;;;;;9.50;8.50;;;;;8.81;64.76;102369.47;5028815;28;46676;-73
2021/12/20 07:55:34;;;;;;;;;15.50;11.50;;;;;8.97;64.70;102388.56;5016594;28;58989;-73
2021/12/20 07:57:59;;;;;;;;;14.00;11.75;;;;;8.99;64.85;102382.53;5030832;28;47850;-74
2021/12/20 08:00:25;;;;;;;;;17.00;13.00;;;;;9.06;64.63;102386.34;5027342;28;45625;-73
2021/12/20 08:02:51;;;;;;;;;17.75;16.25;;;;;9.04;65.06;102375.72;5002903;28;46196;-73
2021/12/20 08:05:19;;;;;;;;;20.25;13.50;;;;;9.05;64.74;102368.72;5015766;28;45988;-73
2021/12/20 08:07:45;;;;;;;;;17.50;15.75;;;;;9.18;65.02;102382.47;5015256;28;46597;-74
2021/12/20 08:10:11;;;;;;;;;18.25;15.50;;;;;9.23;64.87;102384.41;5020276;28;45566;-74
2021/12/20 08:12:36;;;;;;;;;14.00;14.00;;;;;9.25;64.73;102385.34;5033680;28;45535;-74
2021/12/20 08:15:02;;;;;;;;;20.00;16.25;;;;;9.29;64.48;102395.19;5027577;28;61570;-74
2021/12/20 08:17:28;;;;;;;;;21.50;15.25;;;;;9.23;64.37;102371.22;5036961;28;46475;-74
2021/12/20 08:19:54;;;;;;;;;22.00;20.25;;;;;9.31;64.24;102383.88;5009447;28;45637;-75
2021/12/20 08:22:24;;;;;;;;;14.50;12.75;;;;;9.28;64.36;102378.47;5034200;28;46559;-76
2021/12/20 08:24:49;;;;;;;;;23.75;19.50;;;;;9.24;64.03;102381.81;5003416;28;45576;-73
2021/12/20 08:27:14;;;;;;;;;21.25;17.00;;;;;9.27;64.14;102389.88;5033451;28;47571;-74
2021/12/20 08:29:40;;;;;;;;;19.50;16.00;;;;;9.32;64.21;102396.22;5042743;28;66052;-73
2021/12/20 08:32:06;;;;;;;;;24.25;18.00;;;;;9.35;64.12;102403.34;5032744;28;53109;-73
2021/12/20 08:34:31;;;;;;;;;28.50;22.00;;;;;9.27;64.27;102381.03;5032340;28;46126;-74
2021/12/20 08:36:57;;;;;;;;;22.75;17.75;;;;;9.38;63.95;102403.50;5021437;28;45560;-79
2021/12/20 08:39:22;;;;;;;;;20.75;17.50;;;;;9.26;63.71;102388.03;5000422;28;47364;-72
2021/12/20 08:41:47;;;;;;;;;19.00;17.00;;;;;9.38;63.90;102406.13;5010449;28;63108;-73
2021/12/20 08:44:13;;;;;;;;;17.50;11.00;;;;;9.39;64.18;102414.09;5034151;28;54754;-73
2021/12/20 08:46:38;;;;;;;;;25.50;15.00;;;;;9.41;63.77;102415.03;4995274;28;47853;-74
2021/12/20 08:49:04;;;;;;;;;30.25;20.00;;;;;9.42;64.03;102411.56;5028433;28;63921;-74
2021/12/20 08:51:30;;;;;;;;;28.75;19.25;;;;;9.43;63.95;102416.03;5017884;28;45544;-74
2021/12/20 08:53:56;;;;;;;;;26.50;20.50;;;;;9.34;63.80;102405.09;5032692;28;45522;-73
2021/12/20 08:56:21;;;;;;;;;21.00;16.75;;;;;9.38;63.81;102412.28;5034765;28;46851;-73
2021/12/20 08:58:47;;;;;;;;;36.50;22.00;;;;;9.45;63.83;102416.97;5029686;28;61610;-73
2021/12/20 09:01:13;;;;;;;;;24.75;19.75;;;;;9.44;63.83;102417.81;5032695;28;45513;-72
2021/12/20 09:03:39;;;;;;;;;25.25;21.50;;;;;9.48;63.81;102418.84;5018205;28;45485;-72
2021/12/20 09:06:04;;;;;;;;;32.50;21.50;;;;;9.40;63.99;102393.91;5015060;28;57117;-72
2021/12/20 09:08:30;;;;;;;;;29.75;21.25;;;;;9.52;63.82;102417.22;5019055;28;45480;-71
2021/12/20 09:10:56;;;;;;;;;28.75;20.50;;;;;9.53;63.95;102421.66;5032553;28;45458;-71
2021/12/20 09:13:21;;;;;;;;;29.25;20.50;;;;;9.53;63.79;102414.63;5034682;28;45610;-73
2021/12/20 09:15:46;;;;;;;;;26.50;24.25;;;;;9.50;63.43;102411.00;5029046;28;63197;-73
2021/12/20 09:18:12;;;;;;;;;25.25;20.25;;;;;9.56;63.40;102413.88;5030246;28;45562;-72
2021/12/20 09:20:37;;;;;;;;;22.00;19.50;;;;;9.44;63.48;102387.91;5007135;28;46046;-74
2021/12/20 09:23:05;;;;;;;;;24.50;18.00;;;;;9.47;63.36;102405.59;5025614;28;45537;-73
2021/12/20 09:25:31;;;;;;;;;25.50;18.25;;;;;9.55;63.25;102417.34;5003990;28;47148;-74
2021/12/20 09:27:57;;;;;;;;;22.00;17.75;;;;;9.50;63.05;102403.09;5028848;28;45520;-75
2021/12/20 09:30:24;;;;;;;;;25.25;19.50;;;;;9.50;63.60;102409.25;4996772;28;45517;-74
2021/12/20 09:32:50;;;;;;;;;23.50;19.75;;;;;9.58;63.46;102420.09;5032647;28;45620;-75
2021/12/20 09:35:15;;;;;;;;;21.25;19.50;;;;;9.60;63.58;102424.63;5032861;28;47518;-73
2021/12/20 09:37:42;;;;;;;;;23.00;19.00;;;;;9.60;63.26;102421.97;5029740;28;45585;-76
2021/12/20 09:40:12;;;;;;;;;27.75;21.75;;;;;9.59;63.18;102414.00;5033035;28;45563;-75
2021/12/20 09:42:37;;;;;;;;;18.75;15.25;;;;;9.66;63.52;102434.50;5004705;28;47233;-75
2021/12/20 09:45:02;;;;;;;;;26.75;21.75;;;;;9.66;63.19;102432.78;4997365;28;66368;-75
2021/12/20 09:47:32;;;;;;;;;22.00;15.75;;;;;9.66;63.09;102416.94;5016504;28;45852;-74
2021/12/20 09:49:57;;;;;;;;;23.00;18.25;;;;;9.58;62.69;102399.91;5016003;28;45585;-74
2021/12/20 09:52:23;;;;;;;;;20.50;16.50;;;;;9.68;62.97;102417.88;4997938;28;64044;-74
2021/12/20 09:54:48;;;;;;;;;21.00;16.50;;;;;9.68;62.73;102423.16;5015240;28;45711;-75
2021/12/20 09:57:14;;;;;;;;;19.50;15.00;;;;;9.70;62.85;102433.81;5008516;28;64948;-74
2021/12/20 09:59:40;;;;;;;;;15.00;11.75;;;;;9.68;62.60;102419.63;5000348;28;63661;-75
2021/12/20 10:02:08;;;;;;;;;12.25;12.25;;;;;9.64;62.39;102408.09;4993526;28;45613;-74
2021/12/20 10:04:34;;;;;;;;;14.00;11.50;;;;;9.74;62.36;102429.53;5030985;28;45856;-74
2021/12/20 10:07:01;;;;;;;;;21.75;17.00;;;;;9.73;62.33;102433.91;5016719;28;45562;-74
2021/12/20 10:09:30;;;;;;;;;22.75;14.50;;;;;9.73;62.62;102436.53;5023651;28;45638;-74
2021/12/20 10:12:11;;;;;;;;;18.00;16.50;;;;;9.74;62.20;102426.88;5025152;28;46350;-74
2021/12/20 10:14:53;;;;;;;;;23.25;17.25;;;;;9.65;62.13;102423.06;5027807;28;46045;-74
2021/12/20 10:17:19;;;;;;;;;19.25;16.75;;;;;9.59;62.15;102399.09;5021838;28;45524;-74
2021/12/20 10:19:44;;;;;;;;;23.50;18.00;;;;;9.74;62.04;102426.88;5010857;28;45490;-75
2021/12/20 10:22:28;;;;;;;;;18.00;13.00;;;;;9.75;62.14;102426.97;5027241;28;52187;-74
2021/12/20 10:24:54;;;;;;;;;22.75;18.75;;;;;9.66;62.33;102416.06;5027835;28;47573;-74
2021/12/20 10:27:29;;;;;;;;;24.00;21.00;;;;;9.78;62.04;102432.34;5028386;28;45353;-74
2021/12/20 10:29:55;;;;;;;;;23.25;14.75;;;;;9.74;62.12;102416.34;5029199;28;45625;-74
2021/12/20 10:32:39;;;;;;;;;21.75;19.75;;;;;9.80;62.16;102428.06;5012493;28;53211;-75
2021/12/20 10:35:25;;;;;;;;;21.25;18.00;;;;;9.79;62.23;102420.97;5028891;28;46119;-75
2021/12/20 10:37:52;;;;;;;;;18.25;17.75;;;;;9.68;61.53;102403.81;5021744;28;45624;-76
2021/12/20 10:40:18;;;;;;;;;22.50;17.75;;;;;9.55;61.68;102385.72;5021020;28;45585;-75
2021/12/20 10:42:43;;;;;;;;;18.50;16.00;;;;;9.75;61.67;102416.44;5028517;28;57142;-75
2021/12/20 10:45:14;;;;;;;;;21.00;18.25;;;;;9.74;62.03;102414.59;5026680;28;51475;-75
2021/12/20 10:47:40;;;;;;;;;23.50;18.00;;;;;9.71;61.86;102404.84;5017120;28;45793;-75
2021/12/20 10:50:25;;;;;;;;;19.75;12.75;;;;;9.79;61.44;102414.78;5029604;28;45451;-74
2021/12/20 10:52:51;;;;;;;;;12.00;9.00;;;;;9.71;61.84;102396.94;5027090;28;45593;-74
2021/12/20 10:55:36;;;;;;;;;11.00;9.00;;;;;9.80;61.91;102411.31;5019122;28;46435;-74
2021/12/20 10:58:17;;;;;;;;;10.33;6.67;;;;;9.82;61.58;102409.66;5027516;28;46294;-75
2021/12/20 11:00:42;;;;;;;;;10.75;8.00;;;;;9.74;61.50;102396.13;5032472;28;45451;-74
2021/12/20 11:05:56;;;;;;;;;12.00;9.00;;;;;9.67;61.00;102397.63;5031731;28;46239;-78
2021/12/20 11:11:10;;;;;;;;;9.67;6.67;;;;;9.77;60.98;102401.53;5029311;28;45575;-76
2021/12/20 11:13:39;;;;;;;;;6.67;6.67;;;;;9.81;60.83;102386.75;5031499;28;45618;-75
2021/12/20 11:16:26;;;;;;;;;8.75;8.00;;;;;9.87;60.89;102390.50;5026961;28;48523;-75
2021/12/20 11:19:06;;;;;;;;;11.00;9.00;;;;;9.89;60.76;102386.19;5031086;28;45428;-75
2021/12/20 11:21:32;;;;;;;;;13.25;10.25;;;;;9.82;60.27;102375.34;5038330;28;45534;-75
2021/12/20 11:23:59;;;;;;;;;6.50;6.50;;;;;9.90;60.71;102390.63;5040418;28;45530;-75
2021/12/20 11:26:24;;;;;;;;;11.00;8.75;;;;;9.90;60.49;102395.88;5036237;28;47958;-76
2021/12/20 11:28:51;;;;;;;;;9.33;8.00;;;;;9.87;60.22;102393.16;5011152;28;64314;-78
2021/12/20 11:31:17;;;;;;;;;13.50;9.00;;;;;9.88;60.38;102387.03;5035118;28;45431;-74
2021/12/20 11:33:42;;;;;;;;;10.50;9.00;;;;;9.84;59.74;102382.47;5013721;28;61726;-74
2021/12/20 11:36:07;;;;;;;;;10.50;10.50;;;;;9.84;59.26;102378.94;5032097;28;63616;-74
2021/12/20 11:38:33;;;;;;;;;8.75;8.50;;;;;9.79;60.01;102368.19;5015719;28;60288;-74
2021/12/20 11:41:00;;;;;;;;;12.75;11.25;;;;;9.85;60.36;102384.25;5004383;28;45575;-75